sensor_id;sensor_type;location;lat;lon;timestamp;P1;durP1;ratioP1;P2;durP2;ratioP2
3523;SDS011;1776;53.330;11.498;2023-09-19T00:02:16;1.10;;;1.00;;
3523;SDS011;1776;53.330;11.498;2023-09-19T00:04:44;1.57;;;1.30;;
3523;SDS011;1776;53.330;11.498;2023-09-19T00:07:09;1.47;;;1.17;;
3523;SDS011;1776;53.330;11.498;2023-09-19T00:09:35;4.97;;;1.57;;
3523;SDS011;1776;53.330;11.498;2023-09-19T00:12:04;1.47;;;1.17;;
3523;SDS011;1776;53.330;11.498;2023-09-19T00:14:30;1.33;;;1.20;;
3523;SDS011;1776;53.330;11.498;2023-09-19T00:16:59;1.43;;;1.17;;
3523;SDS011;1776;53.330;11.498;2023-09-19T00:19:25;1.43;;;1.33;;
3523;SDS011;1776;53.330;11.498;2023-09-19T00:21:51;7.40;;;1.97;;
3523;SDS011;1776;53.330;11.498;2023-09-19T00:24:18;1.50;;;1.20;;
3523;SDS011;1776;53.330;11.498;2023-09-19T00:26:44;1.30;;;1.20;;
3523;SDS011;1776;53.330;11.498;2023-09-19T00:29:11;6.50;;;2.10;;
3523;SDS011;1776;53.330;11.498;2023-09-19T00:31:38;1.57;;;1.40;;
3523;SDS011;1776;53.330;11.498;2023-09-19T00:34:03;2.27;;;1.97;;
3523;SDS011;1776;53.330;11.498;2023-09-19T00:36:29;1.90;;;1.20;;
3523;SDS011;1776;53.330;11.498;2023-09-19T00:38:54;2.07;;;1.53;;
3523;SDS011;1776;53.330;11.498;2023-09-19T00:41:20;2.23;;;1.43;;
3523;SDS011;1776;53.330;11.498;2023-09-19T00:43:46;1.77;;;1.50;;
3523;SDS011;1776;53.330;11.498;2023-09-19T00:46:12;2.60;;;1.90;;
3523;SDS011;1776;53.330;11.498;2023-09-19T00:48:41;4.00;;;2.13;;
3523;SDS011;1776;53.330;11.498;2023-09-19T00:51:08;2.10;;;1.57;;
3523;SDS011;1776;53.330;11.498;2023-09-19T00:53:34;2.87;;;1.70;;
3523;SDS011;1776;53.330;11.498;2023-09-19T00:55:59;5.23;;;1.60;;
3523;SDS011;1776;53.330;11.498;2023-09-19T00:58:25;1.80;;;1.70;;
3523;SDS011;1776;53.330;11.498;2023-09-19T01:00:50;2.20;;;1.33;;
3523;SDS011;1776;53.330;11.498;2023-09-19T01:03:17;2.30;;;1.20;;
3523;SDS011;1776;53.330;11.498;2023-09-19T01:05:43;2.00;;;1.63;;
3523;SDS011;1776;53.330;11.498;2023-09-19T01:08:08;3.67;;;1.57;;
3523;SDS011;1776;53.330;11.498;2023-09-19T01:10:36;3.47;;;1.57;;
3523;SDS011;1776;53.330;11.498;2023-09-19T01:19:22;1.73;;;1.40;;
3523;SDS011;1776;53.330;11.498;2023-09-19T01:22:09;1.43;;;1.30;;
3523;SDS011;1776;53.330;11.498;2023-09-19T01:25:07;2.10;;;1.30;;
3523;SDS011;1776;53.330;11.498;2023-09-19T01:30:50;1.90;;;1.50;;
3523;SDS011;1776;53.330;11.498;2023-09-19T01:33:22;4.23;;;1.53;;
3523;SDS011;1776;53.330;11.498;2023-09-19T01:35:48;2.57;;;1.90;;
3523;SDS011;1776;53.330;11.498;2023-09-19T01:38:14;2.23;;;1.83;;
3523;SDS011;1776;53.330;11.498;2023-09-19T01:40:43;2.07;;;1.67;;
3523;SDS011;1776;53.330;11.498;2023-09-19T01:43:27;1.93;;;1.50;;
3523;SDS011;1776;53.330;11.498;2023-09-19T01:46:14;1.57;;;1.23;;
3523;SDS011;1776;53.330;11.498;2023-09-19T01:49:00;4.20;;;1.63;;
3523;SDS011;1776;53.330;11.498;2023-09-19T01:54:18;1.30;;;1.20;;
3523;SDS011;1776;53.330;11.498;2023-09-19T01:59:41;3.93;;;1.80;;
3523;SDS011;1776;53.330;11.498;2023-09-19T02:02:13;2.20;;;1.80;;
3523;SDS011;1776;53.330;11.498;2023-09-19T02:04:40;3.23;;;1.80;;
3523;SDS011;1776;53.330;11.498;2023-09-19T02:07:05;3.70;;;1.70;;
3523;SDS011;1776;53.330;11.498;2023-09-19T02:09:31;1.53;;;1.10;;
3523;SDS011;1776;53.330;11.498;2023-09-19T02:11:56;2.43;;;1.90;;
3523;SDS011;1776;53.330;11.498;2023-09-19T02:14:21;1.87;;;1.50;;
3523;SDS011;1776;53.330;11.498;2023-09-19T02:16:47;2.10;;;1.77;;
3523;SDS011;1776;53.330;11.498;2023-09-19T02:19:13;1.80;;;1.50;;
3523;SDS011;1776;53.330;11.498;2023-09-19T02:21:38;5.47;;;1.70;;
3523;SDS011;1776;53.330;11.498;2023-09-19T02:24:05;3.70;;;1.87;;
3523;SDS011;1776;53.330;11.498;2023-09-19T02:26:33;2.10;;;1.80;;
3523;SDS011;1776;53.330;11.498;2023-09-19T02:29:01;8.50;;;1.70;;
3523;SDS011;1776;53.330;11.498;2023-09-19T02:31:29;3.83;;;2.10;;
3523;SDS011;1776;53.330;11.498;2023-09-19T02:33:55;2.67;;;1.80;;
3523;SDS011;1776;53.330;11.498;2023-09-19T02:36:21;1.97;;;1.70;;
3523;SDS011;1776;53.330;11.498;2023-09-19T02:38:48;1.93;;;1.43;;
3523;SDS011;1776;53.330;11.498;2023-09-19T02:41:13;3.80;;;2.23;;
3523;SDS011;1776;53.330;11.498;2023-09-19T02:43:38;5.20;;;2.50;;
3523;SDS011;1776;53.330;11.498;2023-09-19T02:46:04;2.53;;;2.10;;
3523;SDS011;1776;53.330;11.498;2023-09-19T02:48:29;2.10;;;1.93;;
3523;SDS011;1776;53.330;11.498;2023-09-19T02:50:54;6.93;;;3.50;;
3523;SDS011;1776;53.330;11.498;2023-09-19T02:53:20;1.60;;;1.50;;
3523;SDS011;1776;53.330;11.498;2023-09-19T02:55:46;2.40;;;1.90;;
3523;SDS011;1776;53.330;11.498;2023-09-19T02:58:12;3.43;;;2.50;;
3523;SDS011;1776;53.330;11.498;2023-09-19T03:00:39;2.60;;;2.27;;
3523;SDS011;1776;53.330;11.498;2023-09-19T03:03:06;2.63;;;2.07;;
3523;SDS011;1776;53.330;11.498;2023-09-19T03:05:33;7.70;;;2.00;;
3523;SDS011;1776;53.330;11.498;2023-09-19T03:07:58;4.17;;;2.07;;
3523;SDS011;1776;53.330;11.498;2023-09-19T03:10:25;4.50;;;2.80;;
3523;SDS011;1776;53.330;11.498;2023-09-19T03:12:52;3.07;;;2.40;;
3523;SDS011;1776;53.330;11.498;2023-09-19T03:15:18;6.60;;;2.40;;
3523;SDS011;1776;53.330;11.498;2023-09-19T03:17:44;5.47;;;1.90;;
3523;SDS011;1776;53.330;11.498;2023-09-19T03:20:10;2.90;;;2.60;;
3523;SDS011;1776;53.330;11.498;2023-09-19T03:22:37;6.30;;;2.30;;
3523;SDS011;1776;53.330;11.498;2023-09-19T03:25:03;3.07;;;2.53;;
3523;SDS011;1776;53.330;11.498;2023-09-19T03:27:32;3.43;;;2.30;;
3523;SDS011;1776;53.330;11.498;2023-09-19T03:29:58;4.27;;;2.90;;
3523;SDS011;1776;53.330;11.498;2023-09-19T03:32:23;5.70;;;2.60;;
3523;SDS011;1776;53.330;11.498;2023-09-19T03:38:11;4.60;;;3.40;;
3523;SDS011;1776;53.330;11.498;2023-09-19T03:40:36;3.30;;;3.00;;
3523;SDS011;1776;53.330;11.498;2023-09-19T03:43:02;3.93;;;2.83;;
3523;SDS011;1776;53.330;11.498;2023-09-19T03:45:28;5.37;;;2.90;;
3523;SDS011;1776;53.330;11.498;2023-09-19T03:47:53;3.67;;;2.73;;
3523;SDS011;1776;53.330;11.498;2023-09-19T03:50:18;6.50;;;3.60;;
3523;SDS011;1776;53.330;11.498;2023-09-19T03:52:47;9.90;;;3.50;;
3523;SDS011;1776;53.330;11.498;2023-09-19T03:55:12;3.87;;;3.33;;
3523;SDS011;1776;53.330;11.498;2023-09-19T03:57:38;4.47;;;3.00;;
3523;SDS011;1776;53.330;11.498;2023-09-19T04:00:03;3.53;;;2.83;;
3523;SDS011;1776;53.330;11.498;2023-09-19T04:02:38;4.07;;;3.73;;
3523;SDS011;1776;53.330;11.498;2023-09-19T04:05:04;3.87;;;3.10;;
3523;SDS011;1776;53.330;11.498;2023-09-19T04:07:30;4.80;;;2.63;;
3523;SDS011;1776;53.330;11.498;2023-09-19T04:09:55;5.13;;;4.10;;
3523;SDS011;1776;53.330;11.498;2023-09-19T04:12:20;3.80;;;3.00;;
3523;SDS011;1776;53.330;11.498;2023-09-19T04:14:46;4.50;;;4.10;;
3523;SDS011;1776;53.330;11.498;2023-09-19T04:17:11;5.03;;;3.23;;
3523;SDS011;1776;53.330;11.498;2023-09-19T04:19:37;6.70;;;4.00;;
3523;SDS011;1776;53.330;11.498;2023-09-19T04:22:02;12.40;;;4.20;;
3523;SDS011;1776;53.330;11.498;2023-09-19T04:24:29;3.60;;;2.60;;
3523;SDS011;1776;53.330;11.498;2023-09-19T04:26:54;4.30;;;2.87;;
3523;SDS011;1776;53.330;11.498;2023-09-19T04:29:19;3.10;;;2.40;;
3523;SDS011;1776;53.330;11.498;2023-09-19T04:31:45;5.50;;;3.30;;
3523;SDS011;1776;53.330;11.498;2023-09-19T04:34:10;4.70;;;3.17;;
3523;SDS011;1776;53.330;11.498;2023-09-19T04:36:42;7.37;;;3.70;;
3523;SDS011;1776;53.330;11.498;2023-09-19T04:39:08;5.20;;;3.60;;
3523;SDS011;1776;53.330;11.498;2023-09-19T04:41:35;7.30;;;3.53;;
3523;SDS011;1776;53.330;11.498;2023-09-19T04:44:03;9.07;;;4.03;;
3523;SDS011;1776;53.330;11.498;2023-09-19T04:46:29;6.40;;;4.37;;
3523;SDS011;1776;53.330;11.498;2023-09-19T04:48:55;7.17;;;3.80;;
3523;SDS011;1776;53.330;11.498;2023-09-19T04:51:20;9.57;;;3.20;;
3523;SDS011;1776;53.330;11.498;2023-09-19T04:53:45;9.00;;;3.77;;
3523;SDS011;1776;53.330;11.498;2023-09-19T04:56:11;6.10;;;3.27;;
3523;SDS011;1776;53.330;11.498;2023-09-19T04:58:36;8.60;;;3.43;;
3523;SDS011;1776;53.330;11.498;2023-09-19T05:01:01;4.83;;;2.90;;
3523;SDS011;1776;53.330;11.498;2023-09-19T05:03:27;6.47;;;4.00;;
3523;SDS011;1776;53.330;11.498;2023-09-19T05:05:53;4.40;;;3.87;;
3523;SDS011;1776;53.330;11.498;2023-09-19T05:08:18;6.53;;;3.50;;
3523;SDS011;1776;53.330;11.498;2023-09-19T05:10:43;4.20;;;3.33;;
3523;SDS011;1776;53.330;11.498;2023-09-19T05:13:08;4.40;;;3.47;;
3523;SDS011;1776;53.330;11.498;2023-09-19T05:15:34;9.57;;;3.27;;
3523;SDS011;1776;53.330;11.498;2023-09-19T05:18:00;3.70;;;2.90;;
3523;SDS011;1776;53.330;11.498;2023-09-19T05:20:26;5.90;;;3.23;;
3523;SDS011;1776;53.330;11.498;2023-09-19T05:23:04;4.33;;;2.73;;
3523;SDS011;1776;53.330;11.498;2023-09-19T05:25:32;5.57;;;3.13;;
3523;SDS011;1776;53.330;11.498;2023-09-19T05:28:02;7.83;;;3.40;;
3523;SDS011;1776;53.330;11.498;2023-09-19T05:30:28;4.70;;;3.17;;
3523;SDS011;1776;53.330;11.498;2023-09-19T05:32:54;6.47;;;2.77;;
3523;SDS011;1776;53.330;11.498;2023-09-19T05:35:20;6.87;;;3.40;;
3523;SDS011;1776;53.330;11.498;2023-09-19T05:37:46;8.40;;;3.33;;
3523;SDS011;1776;53.330;11.498;2023-09-19T05:40:15;6.27;;;2.70;;
3523;SDS011;1776;53.330;11.498;2023-09-19T05:42:41;3.97;;;2.40;;
3523;SDS011;1776;53.330;11.498;2023-09-19T05:45:08;8.13;;;2.40;;
3523;SDS011;1776;53.330;11.498;2023-09-19T05:47:37;10.80;;;3.00;;
3523;SDS011;1776;53.330;11.498;2023-09-19T05:50:02;11.87;;;2.87;;
3523;SDS011;1776;53.330;11.498;2023-09-19T05:52:29;5.30;;;2.70;;
3523;SDS011;1776;53.330;11.498;2023-09-19T05:54:55;12.83;;;3.87;;
3523;SDS011;1776;53.330;11.498;2023-09-19T05:57:21;5.90;;;2.10;;
3523;SDS011;1776;53.330;11.498;2023-09-19T05:59:47;4.27;;;2.57;;
3523;SDS011;1776;53.330;11.498;2023-09-19T06:02:14;5.13;;;3.07;;
3523;SDS011;1776;53.330;11.498;2023-09-19T06:04:40;4.00;;;2.00;;
3523;SDS011;1776;53.330;11.498;2023-09-19T06:07:06;6.80;;;2.70;;
3523;SDS011;1776;53.330;11.498;2023-09-19T06:09:31;6.43;;;1.80;;
3523;SDS011;1776;53.330;11.498;2023-09-19T06:11:57;3.73;;;2.07;;
3523;SDS011;1776;53.330;11.498;2023-09-19T06:14:22;9.20;;;3.50;;
3523;SDS011;1776;53.330;11.498;2023-09-19T06:16:49;9.97;;;3.10;;
3523;SDS011;1776;53.330;11.498;2023-09-19T06:19:15;14.83;;;2.60;;
3523;SDS011;1776;53.330;11.498;2023-09-19T06:21:40;4.57;;;2.10;;
3523;SDS011;1776;53.330;11.498;2023-09-19T06:24:06;4.60;;;2.00;;
3523;SDS011;1776;53.330;11.498;2023-09-19T06:26:31;3.73;;;2.07;;
3523;SDS011;1776;53.330;11.498;2023-09-19T06:28:57;12.67;;;3.60;;
3523;SDS011;1776;53.330;11.498;2023-09-19T06:31:22;10.47;;;2.27;;
3523;SDS011;1776;53.330;11.498;2023-09-19T06:33:51;11.83;;;2.60;;
3523;SDS011;1776;53.330;11.498;2023-09-19T06:36:16;5.63;;;2.73;;
3523;SDS011;1776;53.330;11.498;2023-09-19T06:38:42;3.93;;;2.30;;
3523;SDS011;1776;53.330;11.498;2023-09-19T06:41:07;6.83;;;2.67;;
3523;SDS011;1776;53.330;11.498;2023-09-19T06:43:34;6.20;;;2.43;;
3523;SDS011;1776;53.330;11.498;2023-09-19T06:46:02;2.93;;;2.30;;
3523;SDS011;1776;53.330;11.498;2023-09-19T06:48:28;5.50;;;3.17;;
3523;SDS011;1776;53.330;11.498;2023-09-19T06:50:54;5.00;;;2.70;;
3523;SDS011;1776;53.330;11.498;2023-09-19T06:53:23;6.80;;;2.40;;
3523;SDS011;1776;53.330;11.498;2023-09-19T06:55:49;7.50;;;2.30;;
3523;SDS011;1776;53.330;11.498;2023-09-19T06:58:15;7.67;;;2.60;;
3523;SDS011;1776;53.330;11.498;2023-09-19T07:00:41;6.83;;;2.60;;
3523;SDS011;1776;53.330;11.498;2023-09-19T07:03:07;5.40;;;2.17;;
3523;SDS011;1776;53.330;11.498;2023-09-19T07:05:36;4.60;;;2.40;;
3523;SDS011;1776;53.330;11.498;2023-09-19T07:08:03;10.27;;;3.20;;
3523;SDS011;1776;53.330;11.498;2023-09-19T07:10:30;5.57;;;2.30;;
3523;SDS011;1776;53.330;11.498;2023-09-19T07:12:57;11.40;;;2.27;;
3523;SDS011;1776;53.330;11.498;2023-09-19T07:15:24;11.53;;;2.27;;
3523;SDS011;1776;53.330;11.498;2023-09-19T07:17:50;7.93;;;3.00;;
3523;SDS011;1776;53.330;11.498;2023-09-19T07:20:17;6.17;;;2.23;;
3523;SDS011;1776;53.330;11.498;2023-09-19T07:22:42;6.60;;;2.60;;
3523;SDS011;1776;53.330;11.498;2023-09-19T07:25:08;6.23;;;2.40;;
3523;SDS011;1776;53.330;11.498;2023-09-19T07:27:33;9.73;;;2.83;;
3523;SDS011;1776;53.330;11.498;2023-09-19T07:29:58;7.60;;;2.23;;
3523;SDS011;1776;53.330;11.498;2023-09-19T07:32:24;11.57;;;3.20;;
3523;SDS011;1776;53.330;11.498;2023-09-19T07:34:49;6.17;;;2.30;;
3523;SDS011;1776;53.330;11.498;2023-09-19T07:37:14;6.30;;;2.33;;
3523;SDS011;1776;53.330;11.498;2023-09-19T07:39:40;7.30;;;2.73;;
3523;SDS011;1776;53.330;11.498;2023-09-19T07:42:06;7.97;;;2.23;;
3523;SDS011;1776;53.330;11.498;2023-09-19T07:44:32;8.20;;;2.23;;
3523;SDS011;1776;53.330;11.498;2023-09-19T07:46:57;8.77;;;2.40;;
3523;SDS011;1776;53.330;11.498;2023-09-19T07:49:22;5.77;;;2.17;;
3523;SDS011;1776;53.330;11.498;2023-09-19T07:51:47;7.67;;;3.00;;
3523;SDS011;1776;53.330;11.498;2023-09-19T07:54:13;8.73;;;2.43;;
3523;SDS011;1776;53.330;11.498;2023-09-19T07:56:39;9.60;;;2.57;;
3523;SDS011;1776;53.330;11.498;2023-09-19T07:59:04;4.07;;;2.20;;
3523;SDS011;1776;53.330;11.498;2023-09-19T08:01:29;10.47;;;3.00;;
3523;SDS011;1776;53.330;11.498;2023-09-19T08:03:55;7.50;;;2.10;;
3523;SDS011;1776;53.330;11.498;2023-09-19T08:06:20;8.90;;;2.93;;
3523;SDS011;1776;53.330;11.498;2023-09-19T08:08:45;5.20;;;2.53;;
3523;SDS011;1776;53.330;11.498;2023-09-19T08:11:11;15.53;;;3.13;;
3523;SDS011;1776;53.330;11.498;2023-09-19T08:13:37;4.00;;;2.77;;
3523;SDS011;1776;53.330;11.498;2023-09-19T08:16:09;6.30;;;2.23;;
3523;SDS011;1776;53.330;11.498;2023-09-19T08:18:35;8.07;;;2.40;;
3523;SDS011;1776;53.330;11.498;2023-09-19T08:21:01;3.90;;;1.83;;
3523;SDS011;1776;53.330;11.498;2023-09-19T08:23:27;17.20;;;2.70;;
3523;SDS011;1776;53.330;11.498;2023-09-19T08:25:57;6.83;;;2.40;;
3523;SDS011;1776;53.330;11.498;2023-09-19T08:28:23;9.40;;;2.90;;
3523;SDS011;1776;53.330;11.498;2023-09-19T08:30:49;6.33;;;3.00;;
3523;SDS011;1776;53.330;11.498;2023-09-19T08:33:15;10.30;;;4.13;;
3523;SDS011;1776;53.330;11.498;2023-09-19T08:35:41;10.77;;;3.40;;
3523;SDS011;1776;53.330;11.498;2023-09-19T08:38:08;8.60;;;2.67;;
3523;SDS011;1776;53.330;11.498;2023-09-19T08:40:39;7.20;;;3.00;;
3523;SDS011;1776;53.330;11.498;2023-09-19T08:43:08;10.03;;;2.63;;
3523;SDS011;1776;53.330;11.498;2023-09-19T08:45:33;7.40;;;2.30;;
3523;SDS011;1776;53.330;11.498;2023-09-19T08:48:08;4.73;;;2.50;;
3523;SDS011;1776;53.330;11.498;2023-09-19T08:50:52;5.13;;;2.60;;
3523;SDS011;1776;53.330;11.498;2023-09-19T08:53:27;7.73;;;4.30;;
3523;SDS011;1776;53.330;11.498;2023-09-19T08:55:59;4.37;;;2.77;;
3523;SDS011;1776;53.330;11.498;2023-09-19T08:58:27;2.27;;;2.00;;
3523;SDS011;1776;53.330;11.498;2023-09-19T09:01:00;5.80;;;3.00;;
3523;SDS011;1776;53.330;11.498;2023-09-19T09:03:26;4.50;;;2.73;;
3523;SDS011;1776;53.330;11.498;2023-09-19T09:05:51;8.70;;;2.50;;
3523;SDS011;1776;53.330;11.498;2023-09-19T09:08:18;9.37;;;3.60;;
3523;SDS011;1776;53.330;11.498;2023-09-19T09:10:46;7.40;;;3.57;;
3523;SDS011;1776;53.330;11.498;2023-09-19T09:13:12;6.20;;;3.23;;
3523;SDS011;1776;53.330;11.498;2023-09-19T09:15:39;5.77;;;2.50;;
3523;SDS011;1776;53.330;11.498;2023-09-19T09:18:06;9.37;;;3.10;;
3523;SDS011;1776;53.330;11.498;2023-09-19T09:20:31;13.20;;;3.50;;
3523;SDS011;1776;53.330;11.498;2023-09-19T09:22:57;7.27;;;2.50;;
3523;SDS011;1776;53.330;11.498;2023-09-19T09:25:27;5.90;;;2.30;;
3523;SDS011;1776;53.330;11.498;2023-09-19T09:28:23;7.13;;;3.00;;
3523;SDS011;1776;53.330;11.498;2023-09-19T09:30:50;7.93;;;2.40;;
3523;SDS011;1776;53.330;11.498;2023-09-19T09:33:16;9.33;;;2.60;;
3523;SDS011;1776;53.330;11.498;2023-09-19T09:38:20;5.73;;;2.47;;
3523;SDS011;1776;53.330;11.498;2023-09-19T09:40:47;9.30;;;2.27;;
3523;SDS011;1776;53.330;11.498;2023-09-19T09:49:02;8.87;;;2.50;;
3523;SDS011;1776;53.330;11.498;2023-09-19T09:51:37;3.90;;;2.20;;
3523;SDS011;1776;53.330;11.498;2023-09-19T09:54:14;8.80;;;2.37;;
3523;SDS011;1776;53.330;11.498;2023-09-19T09:56:54;9.30;;;2.80;;
3523;SDS011;1776;53.330;11.498;2023-09-19T09:59:39;3.47;;;1.70;;
3523;SDS011;1776;53.330;11.498;2023-09-19T10:02:15;8.23;;;2.83;;
3523;SDS011;1776;53.330;11.498;2023-09-19T10:04:54;3.63;;;2.20;;
3523;SDS011;1776;53.330;11.498;2023-09-19T10:07:40;6.97;;;3.10;;
3523;SDS011;1776;53.330;11.498;2023-09-19T10:10:07;8.13;;;1.90;;
3523;SDS011;1776;53.330;11.498;2023-09-19T10:12:47;4.40;;;1.80;;
3523;SDS011;1776;53.330;11.498;2023-09-19T10:15:17;6.63;;;2.17;;
3523;SDS011;1776;53.330;11.498;2023-09-19T10:17:45;10.23;;;2.50;;
3523;SDS011;1776;53.330;11.498;2023-09-19T10:20:15;6.30;;;2.07;;
3523;SDS011;1776;53.330;11.498;2023-09-19T10:22:48;9.00;;;2.80;;
3523;SDS011;1776;53.330;11.498;2023-09-19T10:25:28;10.00;;;2.67;;
3523;SDS011;1776;53.330;11.498;2023-09-19T10:27:54;5.63;;;2.03;;
3523;SDS011;1776;53.330;11.498;2023-09-19T10:30:20;9.07;;;2.13;;
3523;SDS011;1776;53.330;11.498;2023-09-19T10:32:47;5.20;;;1.70;;
3523;SDS011;1776;53.330;11.498;2023-09-19T10:35:23;7.13;;;2.40;;
3523;SDS011;1776;53.330;11.498;2023-09-19T10:37:49;3.97;;;2.20;;
3523;SDS011;1776;53.330;11.498;2023-09-19T10:40:16;9.53;;;2.40;;
3523;SDS011;1776;53.330;11.498;2023-09-19T10:42:45;7.03;;;2.10;;
3523;SDS011;1776;53.330;11.498;2023-09-19T10:45:13;6.87;;;2.07;;
3523;SDS011;1776;53.330;11.498;2023-09-19T10:47:40;3.60;;;1.97;;
3523;SDS011;1776;53.330;11.498;2023-09-19T10:50:06;4.17;;;2.60;;
3523;SDS011;1776;53.330;11.498;2023-09-19T10:52:38;9.70;;;2.20;;
3523;SDS011;1776;53.330;11.498;2023-09-19T10:55:07;7.80;;;2.10;;
3523;SDS011;1776;53.330;11.498;2023-09-19T10:57:36;10.07;;;2.70;;
3523;SDS011;1776;53.330;11.498;2023-09-19T11:00:02;10.30;;;2.27;;
3523;SDS011;1776;53.330;11.498;2023-09-19T11:08:29;4.23;;;1.93;;
3523;SDS011;1776;53.330;11.498;2023-09-19T11:10:57;11.73;;;2.23;;
3523;SDS011;1776;53.330;11.498;2023-09-19T11:13:27;8.13;;;2.07;;
3523;SDS011;1776;53.330;11.498;2023-09-19T11:24:27;5.07;;;2.07;;
3523;SDS011;1776;53.330;11.498;2023-09-19T11:27:12;7.03;;;2.63;;
3523;SDS011;1776;53.330;11.498;2023-09-19T11:29:38;7.50;;;1.90;;
3523;SDS011;1776;53.330;11.498;2023-09-19T11:32:05;6.80;;;2.07;;
3523;SDS011;1776;53.330;11.498;2023-09-19T11:39:36;4.37;;;1.87;;
3523;SDS011;1776;53.330;11.498;2023-09-19T11:42:03;4.20;;;1.97;;
3523;SDS011;1776;53.330;11.498;2023-09-19T11:45:06;6.00;;;1.77;;
3523;SDS011;1776;53.330;11.498;2023-09-19T11:47:31;9.33;;;2.03;;
3523;SDS011;1776;53.330;11.498;2023-09-19T11:50:00;8.50;;;1.77;;
3523;SDS011;1776;53.330;11.498;2023-09-19T11:52:26;13.20;;;1.90;;
3523;SDS011;1776;53.330;11.498;2023-09-19T11:54:59;10.10;;;2.20;;
3523;SDS011;1776;53.330;11.498;2023-09-19T11:57:26;5.17;;;2.10;;
3523;SDS011;1776;53.330;11.498;2023-09-19T11:59:53;5.90;;;2.10;;
3523;SDS011;1776;53.330;11.498;2023-09-19T12:02:27;8.03;;;2.47;;
3523;SDS011;1776;53.330;11.498;2023-09-19T12:05:04;6.90;;;2.23;;
3523;SDS011;1776;53.330;11.498;2023-09-19T12:07:30;3.97;;;2.00;;
3523;SDS011;1776;53.330;11.498;2023-09-19T12:10:07;6.37;;;2.43;;
3523;SDS011;1776;53.330;11.498;2023-09-19T12:12:36;6.70;;;3.17;;
3523;SDS011;1776;53.330;11.498;2023-09-19T12:15:02;6.00;;;2.53;;
3523;SDS011;1776;53.330;11.498;2023-09-19T12:17:35;6.80;;;2.00;;
3523;SDS011;1776;53.330;11.498;2023-09-19T12:20:02;6.77;;;2.10;;
3523;SDS011;1776;53.330;11.498;2023-09-19T12:22:41;3.43;;;1.70;;
3523;SDS011;1776;53.330;11.498;2023-09-19T12:25:09;6.80;;;2.50;;
3523;SDS011;1776;53.330;11.498;2023-09-19T12:27:42;6.33;;;1.63;;
3523;SDS011;1776;53.330;11.498;2023-09-19T12:30:12;6.20;;;1.97;;
3523;SDS011;1776;53.330;11.498;2023-09-19T12:32:39;6.83;;;2.00;;
3523;SDS011;1776;53.330;11.498;2023-09-19T12:35:06;2.73;;;1.57;;
3523;SDS011;1776;53.330;11.498;2023-09-19T12:37:42;4.70;;;2.13;;
3523;SDS011;1776;53.330;11.498;2023-09-19T12:40:13;6.60;;;2.87;;
3523;SDS011;1776;53.330;11.498;2023-09-19T12:42:47;4.57;;;2.13;;
3523;SDS011;1776;53.330;11.498;2023-09-19T12:45:13;7.60;;;2.10;;
3523;SDS011;1776;53.330;11.498;2023-09-19T12:47:40;8.40;;;2.20;;
3523;SDS011;1776;53.330;11.498;2023-09-19T12:50:26;7.77;;;2.00;;
3523;SDS011;1776;53.330;11.498;2023-09-19T12:52:54;5.47;;;2.30;;
3523;SDS011;1776;53.330;11.498;2023-09-19T12:55:22;6.70;;;1.83;;
3523;SDS011;1776;53.330;11.498;2023-09-19T12:58:08;6.10;;;2.07;;
3523;SDS011;1776;53.330;11.498;2023-09-19T13:03:17;6.33;;;2.23;;
3523;SDS011;1776;53.330;11.498;2023-09-19T13:05:59;13.87;;;2.40;;
3523;SDS011;1776;53.330;11.498;2023-09-19T13:08:37;4.30;;;2.47;;
3523;SDS011;1776;53.330;11.498;2023-09-19T13:13:37;10.53;;;2.30;;
3523;SDS011;1776;53.330;11.498;2023-09-19T13:16:19;4.23;;;2.57;;
3523;SDS011;1776;53.330;11.498;2023-09-19T13:21:26;8.77;;;2.77;;
3523;SDS011;1776;53.330;11.498;2023-09-19T13:23:54;6.73;;;2.77;;
3523;SDS011;1776;53.330;11.498;2023-09-19T13:26:24;7.17;;;2.30;;
3523;SDS011;1776;53.330;11.498;2023-09-19T13:28:51;7.37;;;2.60;;
3523;SDS011;1776;53.330;11.498;2023-09-19T13:31:16;7.73;;;2.43;;
3523;SDS011;1776;53.330;11.498;2023-09-19T13:33:45;3.30;;;2.50;;
3523;SDS011;1776;53.330;11.498;2023-09-19T13:36:13;8.20;;;2.60;;
3523;SDS011;1776;53.330;11.498;2023-09-19T13:38:42;3.80;;;2.67;;
3523;SDS011;1776;53.330;11.498;2023-09-19T13:41:11;3.10;;;2.40;;
3523;SDS011;1776;53.330;11.498;2023-09-19T13:43:38;4.67;;;2.37;;
3523;SDS011;1776;53.330;11.498;2023-09-19T13:46:04;5.80;;;2.40;;
3523;SDS011;1776;53.330;11.498;2023-09-19T13:48:30;6.83;;;2.80;;
3523;SDS011;1776;53.330;11.498;2023-09-19T13:50:55;4.73;;;2.60;;
3523;SDS011;1776;53.330;11.498;2023-09-19T13:53:21;10.07;;;3.30;;
3523;SDS011;1776;53.330;11.498;2023-09-19T13:55:47;10.63;;;3.77;;
3523;SDS011;1776;53.330;11.498;2023-09-19T13:58:13;6.97;;;2.83;;
3523;SDS011;1776;53.330;11.498;2023-09-19T14:00:39;8.33;;;3.40;;
3523;SDS011;1776;53.330;11.498;2023-09-19T14:03:04;5.03;;;2.97;;
3523;SDS011;1776;53.330;11.498;2023-09-19T14:05:29;12.17;;;3.97;;
3523;SDS011;1776;53.330;11.498;2023-09-19T14:07:55;4.57;;;2.80;;
3523;SDS011;1776;53.330;11.498;2023-09-19T14:10:21;8.00;;;2.53;;
3523;SDS011;1776;53.330;11.498;2023-09-19T14:12:46;5.63;;;2.90;;
3523;SDS011;1776;53.330;11.498;2023-09-19T14:15:12;4.83;;;2.80;;
3523;SDS011;1776;53.330;11.498;2023-09-19T14:17:38;4.20;;;3.00;;
3523;SDS011;1776;53.330;11.498;2023-09-19T14:20:07;7.97;;;3.20;;
3523;SDS011;1776;53.330;11.498;2023-09-19T14:22:35;5.40;;;2.90;;
3523;SDS011;1776;53.330;11.498;2023-09-19T14:25:01;5.50;;;2.73;;
3523;SDS011;1776;53.330;11.498;2023-09-19T14:27:27;7.13;;;3.13;;
3523;SDS011;1776;53.330;11.498;2023-09-19T14:29:53;6.97;;;2.83;;
3523;SDS011;1776;53.330;11.498;2023-09-19T14:32:18;8.73;;;2.97;;
3523;SDS011;1776;53.330;11.498;2023-09-19T14:34:44;15.20;;;3.27;;
3523;SDS011;1776;53.330;11.498;2023-09-19T14:37:09;6.53;;;2.83;;
3523;SDS011;1776;53.330;11.498;2023-09-19T14:39:36;5.40;;;2.80;;
3523;SDS011;1776;53.330;11.498;2023-09-19T14:42:03;6.23;;;3.10;;
3523;SDS011;1776;53.330;11.498;2023-09-19T14:44:29;7.53;;;3.70;;
3523;SDS011;1776;53.330;11.498;2023-09-19T14:46:54;4.80;;;3.00;;
3523;SDS011;1776;53.330;11.498;2023-09-19T14:49:20;16.53;;;3.73;;
3523;SDS011;1776;53.330;11.498;2023-09-19T14:51:45;4.30;;;2.60;;
3523;SDS011;1776;53.330;11.498;2023-09-19T14:54:12;7.73;;;2.90;;
3523;SDS011;1776;53.330;11.498;2023-09-19T14:56:37;10.27;;;3.13;;
3523;SDS011;1776;53.330;11.498;2023-09-19T14:59:03;6.03;;;2.67;;
3523;SDS011;1776;53.330;11.498;2023-09-19T15:01:28;6.47;;;3.20;;
3523;SDS011;1776;53.330;11.498;2023-09-19T15:03:54;5.60;;;3.00;;
3523;SDS011;1776;53.330;11.498;2023-09-19T15:06:20;6.47;;;2.50;;
3523;SDS011;1776;53.330;11.498;2023-09-19T15:08:46;3.47;;;2.60;;
3523;SDS011;1776;53.330;11.498;2023-09-19T15:11:13;6.00;;;2.87;;
3523;SDS011;1776;53.330;11.498;2023-09-19T15:13:42;11.73;;;3.53;;
3523;SDS011;1776;53.330;11.498;2023-09-19T15:16:09;6.00;;;3.93;;
3523;SDS011;1776;53.330;11.498;2023-09-19T15:18:35;5.80;;;2.87;;
3523;SDS011;1776;53.330;11.498;2023-09-19T15:21:05;5.43;;;2.50;;
3523;SDS011;1776;53.330;11.498;2023-09-19T15:23:32;7.73;;;3.33;;
3523;SDS011;1776;53.330;11.498;2023-09-19T15:25:59;7.20;;;3.03;;
3523;SDS011;1776;53.330;11.498;2023-09-19T15:28:26;5.87;;;3.00;;
3523;SDS011;1776;53.330;11.498;2023-09-19T15:31:01;7.23;;;3.20;;
3523;SDS011;1776;53.330;11.498;2023-09-19T15:33:27;7.20;;;3.00;;
3523;SDS011;1776;53.330;11.498;2023-09-19T15:36:02;6.43;;;3.10;;
3523;SDS011;1776;53.330;11.498;2023-09-19T15:41:22;6.77;;;2.97;;
3523;SDS011;1776;53.330;11.498;2023-09-19T15:43:48;6.57;;;2.33;;
3523;SDS011;1776;53.330;11.498;2023-09-19T15:46:14;7.13;;;3.10;;
3523;SDS011;1776;53.330;11.498;2023-09-19T15:48:40;9.13;;;2.83;;
3523;SDS011;1776;53.330;11.498;2023-09-19T15:51:05;7.93;;;2.97;;
3523;SDS011;1776;53.330;11.498;2023-09-19T15:53:36;8.97;;;4.10;;
3523;SDS011;1776;53.330;11.498;2023-09-19T15:56:08;7.33;;;3.57;;
3523;SDS011;1776;53.330;11.498;2023-09-19T15:58:33;7.03;;;3.00;;
3523;SDS011;1776;53.330;11.498;2023-09-19T16:01:04;12.20;;;3.83;;
3523;SDS011;1776;53.330;11.498;2023-09-19T16:03:31;10.70;;;3.10;;